createdAt,value
2017-10-09T00:02:37.974Z,95.60
2017-10-09T00:05:48.862Z,96.30
2017-10-09T00:08:59.421Z,96.30
2017-10-09T00:12:10.025Z,96.20
2017-10-09T00:15:19.625Z,96.10
2017-10-09T00:18:29.441Z,96.10
2017-10-09T00:21:40.153Z,96.10
2017-10-09T00:24:50.504Z,95.80
2017-10-09T00:28:01.070Z,95.70
2017-10-09T00:31:11.659Z,96.20
2017-10-09T00:34:22.074Z,96.20
2017-10-09T00:37:32.568Z,96.10
2017-10-09T00:40:43.513Z,96.10
2017-10-09T00:43:53.978Z,96.10
2017-10-09T00:47:04.618Z,96.00
2017-10-09T00:50:14.340Z,96.00
2017-10-09T00:53:24.350Z,95.90
2017-10-09T00:56:35.157Z,96.00
2017-10-09T00:59:45.936Z,95.30
2017-10-09T01:02:55.844Z,95.60
2017-10-09T01:06:07.366Z,95.70
2017-10-09T01:09:17.327Z,95.60
2017-10-09T01:12:27.996Z,95.60
2017-10-09T01:15:38.824Z,95.30
2017-10-09T01:18:49.166Z,95.30
2017-10-09T01:22:00.000Z,95.30
2017-10-09T01:25:11.647Z,95.40
2017-10-09T01:28:21.681Z,95.40
2017-10-09T01:31:33.176Z,95.30
2017-10-09T01:34:43.910Z,95.30
2017-10-09T01:37:54.608Z,95.30
2017-10-09T01:41:04.794Z,95.10
2017-10-09T01:44:16.312Z,95.30
2017-10-09T01:47:27.053Z,95.70
2017-10-09T01:50:37.798Z,95.30
2017-10-09T01:53:47.802Z,95.60
2017-10-09T01:56:58.463Z,95.20
2017-10-09T02:00:09.203Z,95.90
2017-10-09T02:03:19.047Z,96.20
2017-10-09T02:06:29.882Z,96.10
2017-10-09T02:09:39.794Z,96.00
2017-10-09T02:12:50.540Z,95.90
2017-10-09T02:16:00.498Z,96.10
2017-10-09T02:19:10.236Z,96.00
2017-10-09T02:22:20.417Z,95.90
2017-10-09T02:25:30.390Z,96.00
2017-10-09T02:28:40.327Z,95.80
2017-10-09T02:31:50.926Z,95.70
2017-10-09T02:35:01.250Z,95.70
2017-10-09T02:38:12.853Z,96.00
2017-10-09T02:41:22.962Z,96.30
2017-10-09T02:44:33.681Z,96.60
2017-10-09T02:47:43.471Z,96.70
2017-10-09T02:50:55.325Z,96.50
2017-10-09T02:54:06.010Z,96.70
2017-10-09T02:57:15.868Z,96.80
2017-10-09T03:00:26.727Z,97.30
2017-10-09T03:03:39.163Z,97.00
2017-10-09T03:06:49.086Z,97.30
2017-10-09T03:09:59.862Z,97.30
2017-10-09T03:13:09.672Z,97.40
2017-10-09T03:16:19.483Z,96.70
2017-10-09T03:19:29.103Z,97.00
2017-10-09T03:26:36.562Z,96.50
2017-10-09T03:29:49.632Z,96.60
2017-10-09T03:33:00.864Z,96.50
2017-10-09T03:36:11.154Z,96.90
2017-10-09T03:39:20.978Z,96.70
2017-10-09T03:42:31.501Z,96.80
2017-10-09T03:45:41.430Z,96.80
2017-10-09T03:48:51.981Z,96.70
2017-10-09T03:52:02.466Z,96.60
2017-10-09T03:55:12.028Z,96.40
2017-10-09T03:58:22.273Z,96.80
2017-10-09T04:01:32.046Z,97.80
2017-10-09T04:04:42.743Z,97.40
2017-10-09T04:07:52.881Z,97.30
2017-10-09T04:11:03.554Z,97.30
2017-10-09T04:14:14.222Z,96.80
2017-10-09T04:17:24.133Z,96.90
2017-10-09T04:20:33.964Z,96.70
2017-10-09T04:23:45.372Z,96.70
2017-10-09T04:26:55.347Z,96.80
2017-10-09T04:30:05.050Z,97.00
2017-10-09T04:33:15.704Z,96.70
2017-10-09T04:36:25.574Z,96.70
2017-10-09T04:39:35.487Z,96.50
2017-10-09T04:42:45.871Z,96.70
2017-10-09T04:45:56.627Z,96.30
2017-10-09T04:49:06.622Z,96.30
2017-10-09T04:52:16.425Z,96.30
2017-10-09T04:55:25.997Z,96.40
2017-10-09T04:58:36.813Z,96.60
2017-10-09T05:01:47.861Z,96.60
2017-10-09T05:04:59.042Z,97.00
2017-10-09T05:08:08.981Z,96.90
2017-10-09T05:11:19.612Z,96.80
2017-10-09T05:14:29.562Z,97.00
2017-10-09T05:17:39.614Z,97.10
2017-10-09T05:20:50.286Z,97.00
2017-10-09T05:24:00.646Z,96.90
2017-10-09T05:27:11.410Z,96.90
2017-10-09T05:30:21.563Z,97.10
2017-10-09T05:33:31.973Z,97.30
2017-10-09T05:36:42.738Z,97.80
2017-10-09T05:39:53.063Z,97.80
2017-10-09T05:43:03.696Z,98.50
2017-10-09T05:46:14.252Z,98.10
2017-10-09T05:49:24.547Z,98.00
2017-10-09T05:52:34.482Z,98.10
2017-10-09T05:55:44.336Z,97.80
2017-10-09T05:58:54.241Z,98.40
2017-10-09T06:02:04.989Z,98.40
2017-10-09T06:05:14.912Z,97.70
2017-10-09T06:08:24.894Z,98.10
2017-10-09T06:11:35.641Z,98.80
2017-10-09T06:14:46.447Z,98.10
2017-10-09T06:17:56.946Z,98.00
2017-10-09T06:21:07.043Z,98.90
2017-10-09T06:24:17.223Z,98.60
2017-10-09T06:27:27.311Z,98.60
2017-10-09T06:30:37.336Z,98.50
2017-10-09T06:33:47.327Z,99.00
2017-10-09T06:36:58.046Z,99.20
2017-10-09T06:40:08.092Z,99.40
2017-10-09T06:43:18.948Z,99.40
2017-10-09T06:46:29.832Z,99.60
2017-10-09T06:49:39.703Z,99.70
2017-10-09T06:52:50.420Z,99.70
2017-10-09T06:56:00.792Z,99.70
2017-10-09T06:59:12.219Z,99.80
2017-10-09T07:02:22.924Z,99.90
2017-10-09T07:05:33.754Z,99.90
2017-10-09T07:08:43.779Z,99.90
2017-10-09T07:11:55.361Z,99.90
2017-10-09T07:15:05.388Z,99.90
2017-10-09T07:18:15.308Z,99.90
2017-10-09T07:21:25.896Z,99.90
2017-10-09T07:24:35.585Z,99.90
2017-10-09T07:27:46.237Z,99.80
2017-10-09T07:30:57.105Z,99.90
2017-10-09T07:37:18.836Z,99.50
2017-10-09T07:40:30.300Z,99.10
2017-10-09T07:43:41.430Z,99.10
2017-10-09T07:50:03.340Z,99.10
2017-10-09T07:53:13.957Z,98.70
2017-10-09T07:56:25.338Z,98.50
2017-10-09T07:59:36.691Z,98.90
2017-10-09T08:02:46.976Z,98.90
2017-10-09T08:05:57.210Z,98.60
2017-10-09T08:09:09.934Z,98.30
2017-10-09T08:12:20.174Z,98.30
2017-10-09T08:15:31.678Z,98.30
2017-10-09T08:18:41.885Z,98.30
2017-10-09T08:21:52.648Z,98.20
2017-10-09T08:25:06.756Z,98.20
2017-10-09T08:28:17.500Z,97.60
2017-10-09T08:31:29.204Z,97.60
2017-10-09T08:34:39.526Z,97.50
2017-10-09T08:37:49.706Z,97.40
2017-10-09T08:41:00.395Z,96.60
2017-10-09T08:44:11.204Z,96.00
2017-10-09T08:47:22.662Z,96.20
2017-10-09T08:50:34.308Z,95.20
2017-10-09T08:53:45.078Z,95.20
2017-10-09T08:56:55.591Z,95.90
2017-10-09T09:00:06.556Z,95.00
2017-10-09T09:03:17.137Z,95.60
2017-10-09T09:06:27.714Z,95.70
2017-10-09T09:09:37.900Z,95.10
2017-10-09T09:12:48.037Z,95.30
2017-10-09T09:15:58.477Z,95.20
2017-10-09T09:19:08.780Z,94.10
2017-10-09T09:22:18.841Z,94.70
2017-10-09T09:25:28.970Z,94.40
2017-10-09T09:28:39.033Z,94.40
2017-10-09T09:31:48.624Z,93.00
2017-10-09T09:34:59.163Z,93.00
2017-10-09T09:38:11.060Z,99.90
2017-10-09T09:41:22.514Z,91.00
2017-10-09T09:44:32.401Z,91.00
2017-10-09T09:47:43.703Z,91.80
2017-10-09T09:50:54.778Z,91.80
2017-10-09T09:54:05.286Z,91.20
2017-10-09T09:57:18.620Z,89.30
2017-10-09T10:00:31.000Z,87.80
2017-10-09T10:03:49.712Z,87.80
2017-10-09T10:07:00.732Z,87.90
2017-10-09T10:10:10.827Z,88.50
2017-10-09T10:13:23.018Z,86.50
2017-10-09T10:16:33.721Z,88.70
2017-10-09T10:19:45.214Z,87.40
2017-10-09T10:22:59.819Z,87.90
2017-10-09T10:26:11.962Z,87.80
2017-10-09T10:29:22.600Z,86.40
2017-10-09T10:32:33.839Z,83.60
2017-10-09T10:35:44.153Z,83.30
2017-10-09T10:38:55.147Z,81.70
2017-10-09T10:42:05.453Z,82.00
2017-10-09T10:45:19.888Z,81.40
2017-10-09T10:48:31.189Z,82.30
2017-10-09T10:51:48.535Z,81.40
2017-10-09T10:55:01.901Z,79.90
2017-10-09T10:58:12.294Z,81.70
2017-10-09T11:01:22.364Z,79.60
2017-10-09T11:04:37.230Z,81.50
2017-10-09T11:07:48.184Z,80.90
2017-10-09T11:10:58.898Z,78.80
2017-10-09T11:14:11.928Z,78.30
2017-10-09T11:17:21.919Z,78.20
2017-10-09T11:20:32.060Z,77.00
2017-10-09T11:23:42.707Z,78.60
2017-10-09T11:26:52.722Z,77.30
2017-10-09T11:30:02.902Z,76.80
2017-10-09T11:33:14.409Z,76.60
2017-10-09T11:36:24.595Z,76.50
2017-10-09T11:39:35.512Z,74.30
2017-10-09T11:42:45.549Z,74.30
2017-10-09T11:45:56.244Z,75.20
2017-10-09T11:49:06.935Z,75.20
2017-10-09T11:52:19.093Z,70.80
2017-10-09T11:55:29.531Z,73.10
2017-10-09T11:58:42.725Z,69.30
2017-10-09T12:01:54.313Z,69.70
2017-10-09T12:05:04.446Z,69.60
2017-10-09T12:08:14.397Z,69.70
2017-10-09T12:11:25.291Z,72.40
2017-10-09T12:14:35.322Z,72.20
2017-10-09T12:17:45.286Z,74.90
2017-10-09T12:20:57.200Z,72.90
2017-10-09T12:24:07.137Z,73.10
2017-10-09T12:27:17.518Z,74.20
2017-10-09T12:30:27.573Z,72.60
2017-10-09T12:33:37.822Z,73.80
2017-10-09T12:36:49.494Z,75.40
2017-10-09T12:39:59.387Z,76.10
2017-10-09T12:43:09.648Z,77.50
2017-10-09T12:46:19.830Z,75.70
2017-10-09T12:49:30.999Z,76.30
2017-10-09T12:52:41.356Z,79.40
2017-10-09T12:55:51.435Z,77.30
2017-10-09T12:59:02.171Z,78.00
2017-10-09T13:02:12.406Z,75.10
2017-10-09T13:05:23.950Z,76.90
2017-10-09T13:08:34.414Z,76.80
2017-10-09T13:11:44.393Z,75.60
2017-10-09T13:14:54.486Z,75.70
2017-10-09T13:18:05.839Z,75.60
2017-10-09T13:21:16.124Z,75.50
2017-10-09T13:24:26.770Z,76.00
2017-10-09T13:27:36.926Z,75.90
2017-10-09T13:30:48.700Z,75.60
2017-10-09T13:33:58.849Z,75.60
2017-10-09T13:37:08.836Z,75.20
2017-10-09T13:40:18.675Z,76.10
2017-10-09T13:43:29.530Z,77.00
2017-10-09T13:46:39.725Z,75.80
2017-10-09T13:49:50.640Z,74.60
2017-10-09T13:53:01.530Z,75.70
2017-10-09T13:56:11.502Z,75.00
2017-10-09T13:59:22.916Z,73.80
2017-10-09T14:02:33.688Z,74.40
2017-10-09T14:05:44.432Z,75.00
2017-10-09T14:08:55.319Z,74.80
2017-10-09T14:12:05.937Z,72.80
2017-10-09T14:15:17.186Z,74.90
2017-10-09T14:18:27.522Z,74.90
2017-10-09T14:21:37.623Z,75.50
2017-10-09T14:24:48.335Z,74.10
2017-10-09T14:27:58.704Z,74.10
2017-10-09T14:31:09.398Z,73.40
2017-10-09T14:40:41.305Z,74.80
2017-10-09T14:43:51.410Z,76.60
2017-10-09T14:47:01.342Z,76.00
2017-10-09T14:50:11.273Z,74.00
2017-10-09T14:53:21.347Z,75.90
2017-10-09T14:56:32.124Z,74.00
2017-10-09T14:59:43.142Z,74.00
2017-10-09T15:02:53.382Z,75.90
2017-10-09T15:06:03.374Z,75.70
2017-10-09T15:09:14.063Z,76.20
2017-10-09T15:12:25.032Z,76.40
2017-10-09T15:15:35.702Z,76.30
2017-10-09T15:18:47.259Z,76.70
2017-10-09T15:21:57.140Z,76.70
2017-10-09T15:25:07.064Z,78.20
2017-10-09T15:28:17.001Z,77.20
2017-10-09T15:31:27.159Z,78.00
2017-10-09T15:34:37.019Z,77.90
2017-10-09T15:37:47.710Z,76.90
2017-10-09T15:40:57.718Z,78.10
2017-10-09T15:44:08.485Z,78.40
2017-10-09T15:47:19.258Z,79.90
2017-10-09T15:50:29.829Z,79.20
2017-10-09T15:53:40.125Z,79.20
2017-10-09T15:56:50.643Z,79.40
2017-10-09T16:00:00.458Z,79.20
2017-10-09T16:03:12.284Z,80.90
2017-10-09T16:06:22.527Z,80.90
2017-10-09T16:09:33.151Z,80.80
2017-10-09T16:12:42.942Z,81.50
2017-10-09T16:15:53.112Z,80.60
2017-10-09T16:19:04.428Z,81.00
2017-10-09T16:22:14.652Z,80.50
2017-10-09T16:25:24.581Z,80.60
2017-10-09T16:28:34.626Z,79.60
2017-10-09T16:31:45.380Z,80.10
2017-10-09T16:34:55.457Z,80.20
2017-10-09T16:38:05.711Z,80.50
2017-10-09T16:44:27.606Z,81.30
2017-10-09T16:47:39.274Z,82.20
2017-10-09T16:50:50.732Z,82.80
2017-10-09T16:54:00.975Z,83.30
2017-10-09T16:57:12.638Z,84.80
2017-10-09T17:00:24.206Z,84.70
2017-10-09T17:03:35.488Z,85.20
2017-10-09T17:06:47.456Z,84.60
2017-10-09T17:09:57.697Z,84.60
2017-10-09T17:13:08.412Z,84.60
2017-10-09T17:16:18.691Z,84.50
2017-10-09T17:19:29.270Z,85.40
2017-10-09T17:22:39.744Z,85.30
2017-10-09T17:25:49.745Z,86.10
2017-10-09T17:28:59.754Z,86.90
2017-10-09T17:32:10.663Z,87.00
2017-10-09T17:35:20.848Z,88.00
2017-10-09T17:38:30.614Z,88.20
2017-10-09T17:41:40.750Z,87.40
2017-10-09T17:44:51.517Z,88.90
2017-10-09T17:48:02.638Z,88.10
2017-10-09T17:51:13.845Z,89.20
2017-10-09T17:54:25.853Z,89.10
2017-10-09T17:57:37.286Z,89.40
2017-10-09T18:00:48.349Z,89.90
2017-10-09T18:03:58.230Z,89.90
2017-10-09T18:07:09.097Z,90.30
2017-10-09T18:10:19.562Z,90.30
2017-10-09T18:13:29.616Z,90.30
2017-10-09T18:16:39.615Z,90.40
2017-10-09T18:19:50.188Z,90.40
2017-10-09T18:23:00.852Z,90.50
2017-10-09T18:26:11.017Z,90.50
2017-10-09T18:29:20.975Z,90.50
2017-10-09T18:32:30.848Z,90.70
2017-10-09T18:35:40.695Z,90.80
2017-10-09T18:38:50.761Z,90.80
2017-10-09T18:42:01.305Z,91.10
2017-10-09T18:45:11.045Z,91.10
2017-10-09T18:48:21.989Z,91.40
2017-10-09T18:51:31.794Z,91.50
2017-10-09T18:54:41.744Z,91.40
2017-10-09T18:57:51.579Z,91.30
2017-10-09T19:01:01.777Z,91.40
2017-10-09T19:04:12.244Z,91.60
2017-10-09T19:07:22.522Z,91.50
2017-10-09T19:10:32.313Z,91.70
2017-10-09T19:13:42.210Z,91.90
2017-10-09T19:16:52.074Z,91.90
2017-10-09T19:20:02.167Z,92.20
2017-10-09T19:23:13.295Z,92.20
2017-10-09T19:26:23.159Z,92.10
2017-10-09T19:29:33.122Z,92.50
2017-10-09T19:32:42.801Z,92.40
2017-10-09T19:35:54.104Z,92.30
2017-10-09T19:39:04.197Z,92.30
2017-10-09T19:42:14.774Z,92.40
2017-10-09T19:45:24.642Z,92.30
2017-10-09T19:48:34.475Z,95.00
2017-10-09T19:51:44.313Z,95.20
2017-10-09T19:55:00.126Z,92.20
2017-10-09T19:58:26.117Z,92.20
2017-10-09T20:01:37.185Z,92.20
2017-10-09T20:04:51.721Z,92.30
2017-10-09T20:08:02.530Z,92.70
2017-10-09T20:11:12.971Z,92.60
2017-10-09T20:14:24.723Z,92.50
2017-10-09T20:17:37.964Z,92.70
2017-10-09T20:20:49.644Z,92.40
2017-10-09T20:24:10.411Z,92.50
2017-10-09T20:27:24.856Z,92.50
2017-10-09T20:30:36.408Z,92.40
2017-10-09T20:33:54.467Z,92.50
2017-10-09T20:37:05.449Z,92.70
2017-10-09T20:40:16.307Z,92.70
2017-10-09T20:43:29.510Z,92.80
2017-10-09T20:46:40.483Z,92.80
2017-10-09T20:49:51.650Z,92.70
2017-10-09T20:53:02.960Z,92.80
2017-10-09T20:59:30.937Z,92.80
2017-10-09T21:02:44.368Z,92.80
2017-10-09T21:05:55.324Z,92.80
2017-10-09T21:09:06.255Z,93.10
2017-10-09T21:12:17.326Z,93.10
2017-10-09T21:15:27.526Z,93.10
2017-10-09T21:18:38.468Z,93.10
2017-10-09T21:21:49.293Z,93.30
2017-10-09T21:25:00.714Z,93.50
2017-10-09T21:28:21.412Z,93.50
2017-10-09T21:31:32.843Z,93.60
2017-10-09T21:34:44.621Z,93.90
2017-10-09T21:37:54.975Z,93.80
2017-10-09T21:41:18.330Z,93.90
2017-10-09T21:44:29.580Z,94.10
2017-10-09T21:47:42.163Z,94.00
2017-10-09T21:50:52.953Z,93.90
2017-10-09T21:54:15.038Z,93.80
2017-10-09T21:57:27.034Z,93.80
2017-10-09T22:00:38.237Z,94.00
2017-10-09T22:03:54.933Z,94.10
2017-10-09T22:07:13.634Z,94.10
2017-10-09T22:10:25.746Z,94.00
2017-10-09T22:13:36.055Z,94.00
2017-10-09T22:16:52.670Z,94.30
2017-10-09T22:20:08.344Z,94.20
2017-10-09T22:23:27.717Z,94.20
2017-10-09T22:26:38.223Z,94.20
2017-10-09T22:29:48.711Z,94.10
2017-10-09T22:33:00.615Z,94.40
2017-10-09T22:36:11.704Z,94.30
2017-10-09T22:39:23.089Z,94.40
2017-10-09T22:42:33.630Z,94.10
2017-10-09T22:45:44.230Z,94.40
2017-10-09T22:48:54.856Z,94.30
2017-10-09T22:52:12.924Z,94.10
2017-10-09T22:55:24.319Z,94.30
2017-10-09T22:58:35.166Z,94.40
2017-10-09T23:01:47.016Z,94.30
2017-10-09T23:04:57.276Z,94.30
2017-10-09T23:08:11.259Z,94.40
2017-10-09T23:11:22.574Z,94.50
2017-10-09T23:14:38.219Z,94.50
2017-10-09T23:17:51.570Z,94.70
2017-10-09T23:21:04.332Z,94.20
2017-10-09T23:24:15.579Z,94.60
2017-10-09T23:27:27.577Z,94.80
2017-10-09T23:30:39.790Z,95.10
2017-10-09T23:33:55.813Z,95.00
2017-10-09T23:37:14.109Z,95.00
2017-10-09T23:40:24.203Z,95.30
2017-10-09T23:43:39.943Z,95.50
2017-10-09T23:46:50.528Z,95.60
2017-10-09T23:50:15.780Z,95.70
2017-10-09T23:53:26.011Z,96.00
2017-10-09T23:56:41.200Z,97.20
2017-10-09T23:59:52.989Z,98.10
